Apalachicola Regional Airport


Codes: KAAF/AAF
Name: Apalachicola Regional Airport
City: Apalachicola
Country: United States
Elevation: 20 ft.
Wikipedia:

Photos at Apalachicola Regional Airport


   Photos courtesy of SpottingLog. You can add your own sightings and photos by signing up for a free trial today.



No photos found.

Weather at Apalachicola Regional Airport


Time (UTC)DescriptionTempratureWindCloud coverageVisibilityPressureHumidity
23-May-2024 21:00Broken Clouds29°C9 mph, 57%10000m1016hPa68%
24-May-2024 00:00Scattered Clouds27°C7 mph, S48%10000m1015hPa77%
24-May-2024 03:00Clear Sky25°C7 mph, SW0%10000m1014hPa86%
24-May-2024 06:00Clear Sky24°C4 mph, W2%10000m1013hPa85%
24-May-2024 09:00Scattered Clouds23°C2 mph, SE42%10000m1013hPa83%
24-May-2024 12:00Broken Clouds25°C2 mph, S64%10000m1014hPa76%
24-May-2024 15:00Broken Clouds28°C7 mph, SW65%10000m1015hPa60%
24-May-2024 18:00Broken Clouds29°C9 mph, S75%10000m1014hPa57%
24-May-2024 21:00Overcast Clouds29°C11 mph, SW93%10000m1013hPa57%
25-May-2024 00:00Broken Clouds27°C9 mph, SW61%10000m1013hPa72%
25-May-2024 03:00Clear Sky24°C7 mph, SW0%10000m1013hPa88%
25-May-2024 06:00Clear Sky24°C7 mph, W0%10000m1012hPa91%
25-May-2024 09:00Clear Sky24°C7 mph, W5%10000m1012hPa92%
25-May-2024 12:00Scattered Clouds25°C2 mph, W45%10000m1014hPa86%
25-May-2024 15:00Broken Clouds29°C7 mph, SW64%10000m1015hPa64%
25-May-2024 18:00Broken Clouds31°C13 mph, SW65%10000m1013hPa57%
25-May-2024 21:00Overcast Clouds30°C13 mph, SW100%10000m1012hPa60%
26-May-2024 00:00Broken Clouds27°C9 mph, SW70%10000m1013hPa77%
26-May-2024 03:00Clear Sky25°C7 mph, W4%10000m1014hPa91%
26-May-2024 06:00Clear Sky24°C4 mph, W1%10000m1013hPa92%
26-May-2024 09:00Clear Sky24°C4 mph, W0%10000m1013hPa92%
26-May-2024 12:00Clear Sky25°C2 mph, W0%10000m1014hPa86%
26-May-2024 15:00Scattered Clouds29°C9 mph, S37%10000m1015hPa65%
26-May-2024 18:00Broken Clouds29°C11 mph, S57%10000m1015hPa60%
26-May-2024 21:00Overcast Clouds29°C11 mph, SW99%10000m1014hPa59%
27-May-2024 00:00Overcast Clouds27°C9 mph, SW100%10000m1014hPa72%
27-May-2024 03:00Overcast Clouds25°C9 mph, SW96%10000m1014hPa87%
27-May-2024 06:00Broken Clouds24°C9 mph, SW51%10000m1013hPa88%
27-May-2024 09:00Clear Sky24°C7 mph, SW2%10000m1013hPa90%
27-May-2024 12:00Clear Sky25°C4 mph, SW2%10000m1015hPa84%
27-May-2024 15:00Clear Sky28°C9 mph, S5%10000m1017hPa65%
27-May-2024 18:00Clear Sky29°C11 mph, SW4%10000m1016hPa61%
27-May-2024 21:00Clear Sky29°C11 mph, SW0%10000m1014hPa65%
28-May-2024 00:00Clear Sky27°C9 mph, SW2%10000m1014hPa77%
28-May-2024 03:00Clear Sky25°C7 mph, SW2%10000m1015hPa90%
28-May-2024 06:00Clear Sky26°C9 mph, SW1%10000m1014hPa86%
28-May-2024 09:00Broken Clouds25°C7 mph, SW65%10000m1014hPa90%
28-May-2024 12:00Light Rain27°C9 mph, W82%10000m1017hPa81%
28-May-2024 15:00Light Rain30°C4 mph, W91%10000m1017hPa61%
28-May-2024 18:00Broken Clouds30°C13 mph, SW78%10000m1015hPa63%